Time;durP1;ratioP1;P1;durP2;ratioP2;P2;SDS_P1;SDS_P2;PMS_P1;PMS_P2;Temp;Humidity;BMP_temperature;BMP_pressure;BME280_temperature;BME280_humidity;BME280_pressure;Samples;Min_cycle;Max_cycle;Signal;HPM_P1;HPM_P2
2023/09/02 00:02:27;;;;;;;3.22;2.92;;;;;;;11.16;83.34;96177.75;6211567;28;20042;-72
2023/09/02 00:05:30;;;;;;;4.03;3.17;;;;;;;11.15;83.15;96184.00;6208836;28;20164;-73
2023/09/02 00:08:35;;;;;;;6.22;3.30;;;;;;;11.09;83.61;96181.81;6205491;28;20053;-72
2023/09/02 00:11:36;;;;;;;3.78;3.00;;;;;;;11.11;83.20;96187.81;6205831;28;20628;-72
2023/09/02 00:14:42;;;;;;;4.65;3.08;;;;;;;11.11;83.23;96187.81;6189588;28;20046;-71
2023/09/02 00:17:43;;;;;;;3.30;2.97;;;;;;;11.11;83.33;96193.06;6210531;28;20137;-71
2023/09/02 00:20:50;;;;;;;4.43;3.40;;;;;;;11.16;82.97;96204.09;6207020;28;20513;-71
2023/09/02 00:24:01;;;;;;;4.78;3.28;;;;;;;11.10;83.26;96204.56;6213648;28;20168;-72
2023/09/02 00:27:07;;;;;;;4.77;3.57;;;;;;;11.15;82.73;96205.06;6194149;28;20041;-72
2023/09/02 00:30:09;;;;;;;4.00;2.97;;;;;;;11.10;82.38;96201.94;6205104;28;20080;-71
2023/09/02 00:33:10;;;;;;;4.85;3.63;;;;;;;11.14;82.48;96221.78;6211039;28;20505;-72
2023/09/02 00:36:14;;;;;;;4.30;3.00;;;;;;;11.12;82.31;96218.44;6215623;28;20472;-72
2023/09/02 00:39:18;;;;;;;4.47;2.85;;;;;;;11.21;81.82;96230.91;6213710;28;20544;-71
2023/09/02 00:42:27;;;;;;;3.40;3.05;;;;;;;11.16;81.65;96230.41;6211054;28;20037;-72
2023/09/02 00:45:34;;;;;;;4.65;3.60;;;;;;;11.17;81.64;96237.34;6213083;28;20042;-72
2023/09/02 00:48:36;;;;;;;4.82;3.30;;;;;;;11.09;81.96;96228.38;6212484;28;20481;-72
2023/09/02 00:51:40;;;;;;;4.13;3.53;;;;;;;11.12;81.75;96234.22;6210798;28;20050;-72
2023/09/02 00:54:46;;;;;;;5.38;4.50;;;;;;;11.13;81.70;96240.34;6194236;28;20405;-72
2023/09/02 00:57:53;;;;;;;7.82;4.43;;;;;;;11.07;81.49;96236.41;6210012;28;20045;-72
2023/09/02 01:00:54;;;;;;;7.53;4.47;;;;;;;11.10;81.35;96241.44;6182387;28;20129;-71
2023/09/02 01:03:56;;;;;;;10.77;5.15;;;;;;;11.04;81.61;96230.50;6210384;28;20501;-71
2023/09/02 01:06:59;;;;;;;11.60;5.78;;;;;;;11.06;81.26;96239.97;6210277;28;20133;-71
2023/09/02 01:10:04;;;;;;;14.03;6.93;;;;;;;10.89;81.75;96243.06;6212762;28;20049;-71
2023/09/02 01:13:12;;;;;;;11.13;6.80;;;;;;;10.84;82.24;96245.19;6216337;28;20424;-71
2023/09/02 01:16:16;;;;;;;14.80;7.03;;;;;;;10.89;82.19;96243.06;6215891;28;20041;-70
2023/09/02 01:19:21;;;;;;;15.40;8.07;;;;;;;10.72;81.77;96237.28;6198294;28;20038;-73
2023/09/02 01:22:43;;;;;;;16.90;7.28;;;;;;;10.79;81.61;96243.78;6212429;28;20049;-71
2023/09/02 01:25:54;;;;;;;10.82;5.80;;;;;;;10.72;81.90;96250.44;6210357;28;20052;-71
2023/09/02 01:29:07;;;;;;;12.05;5.60;;;;;;;10.57;82.31;96254.22;6207995;28;20502;-71
2023/09/02 01:32:17;;;;;;;13.00;5.65;;;;;;;10.52;82.76;96251.09;6213926;28;20432;-71
2023/09/02 01:35:28;;;;;;;8.85;5.03;;;;;;;10.50;83.02;96260.88;6194981;28;20041;-71
2023/09/02 01:38:34;;;;;;;6.95;4.60;;;;;;;10.43;83.15;96260.50;6207193;28;20050;-70
2023/09/02 01:41:42;;;;;;;4.35;3.53;;;;;;;10.42;83.13;96260.63;6216833;28;20041;-71
2023/09/02 01:44:46;;;;;;;4.90;3.40;;;;;;;10.48;82.52;96270.72;6215965;28;20413;-70
2023/09/02 01:47:51;;;;;;;4.57;3.70;;;;;;;10.50;82.59;96274.91;6197929;28;20045;-70
2023/09/02 01:50:56;;;;;;;3.72;3.00;;;;;;;10.65;82.38;96270.28;6215937;28;20046;-72
2023/09/02 01:54:00;;;;;;;3.38;2.60;;;;;;;10.79;81.56;96275.34;6211007;28;20038;-71
2023/09/02 01:57:03;;;;;;;;;;;;;;;10.92;81.16;96283.13;6217822;28;20041;-71
2023/09/02 02:00:08;;;;;;;4.00;2.67;;;;;;;10.96;80.49;96278.50;6212232;28;19921;-71
2023/09/02 02:03:24;;;;;;;4.10;2.38;;;;;;;10.98;80.18;96268.69;6213937;28;20542;-70
2023/09/02 02:06:30;;;;;;;3.78;2.13;;;;;;;11.06;80.20;96287.38;6209772;28;20362;-71
2023/09/02 02:09:41;;;;;;;4.72;2.50;;;;;;;11.11;80.58;96295.75;6213774;28;20052;-71
2023/09/02 02:12:43;;;;;;;5.88;2.85;;;;;;;11.17;80.14;96295.28;6216073;28;20045;-72
2023/09/02 02:15:44;;;;;;;4.75;3.38;;;;;;;11.18;80.11;96299.63;6216925;28;20069;-72
2023/09/02 02:18:46;;;;;;;6.43;3.42;;;;;;;11.18;79.65;96289.09;6212809;28;20366;-72
2023/09/02 02:21:50;;;;;;;7.55;3.33;;;;;;;11.35;79.36;96300.09;6211384;28;20038;-73
2023/09/02 02:24:54;;;;;;;10.88;3.75;;;;;;;11.43;79.24;96306.44;6214060;28;20065;-73
2023/09/02 02:27:55;;;;;;;;;;;;;;;11.58;78.85;96295.69;6193743;28;20053;-72
2023/09/02 02:30:59;;;;;;;13.25;4.50;;;;;;;11.74;78.33;96297.94;6210554;28;19947;-73
2023/09/02 02:34:03;;;;;;;9.52;4.43;;;;;;;11.97;77.22;96309.34;6214010;28;20050;-72
2023/09/02 02:37:07;;;;;;;12.32;4.85;;;;;;;12.01;77.26;96321.34;6193679;28;20501;-72
2023/09/02 02:40:11;;;;;;;11.65;4.80;;;;;;;12.12;76.28;96314.25;6209800;28;20456;-72
2023/09/02 02:43:24;;;;;;;8.75;4.55;;;;;;;12.20;75.68;96318.91;6210328;28;20540;-70
2023/09/02 02:46:31;;;;;;;11.90;5.55;;;;;;;12.21;75.58;96323.22;6212602;28;20057;-72
2023/09/02 02:49:43;;;;;;;12.60;4.00;;;;;;;12.22;75.81;96329.31;6200800;28;20034;-71
2023/09/02 02:52:53;;;;;;;9.27;3.92;;;;;;;12.31;75.77;96323.31;6197892;28;20037;-72
2023/09/02 02:55:55;;;;;;;7.70;3.63;;;;;;;12.44;75.05;96323.16;6216162;28;20232;-74
2023/09/02 02:59:02;;;;;;;8.63;3.58;;;;;;;12.59;74.44;96327.19;6215116;28;20046;-72
2023/09/02 03:02:09;;;;;;;4.70;3.03;;;;;;;12.68;73.65;96322.94;6213038;28;20054;-71
2023/09/02 03:05:13;;;;;;;7.05;3.55;;;;;;;12.69;73.27;96333.41;6206015;28;20042;-71
2023/09/02 03:08:14;;;;;;;;;;;;;;;12.77;73.22;96330.13;6211082;28;20112;-72
2023/09/02 03:11:16;;;;;;;11.85;3.10;;;;;;;12.63;73.31;96338.34;6196113;28;20340;-72
2023/09/02 03:14:17;;;;;;;12.93;3.75;;;;;;;12.74;72.58;96340.94;6213751;28;20068;-73
2023/09/02 03:17:20;;;;;;;11.23;3.88;;;;;;;12.69;72.93;96332.56;6191094;28;20647;-72
2023/09/02 03:20:25;;;;;;;7.72;3.50;;;;;;;12.70;72.76;96344.78;6214886;28;20049;-72
2023/09/02 03:23:32;;;;;;;6.05;2.95;;;;;;;12.70;72.33;96340.34;6208246;28;20544;-71
2023/09/02 03:26:33;;;;;;;5.28;2.40;;;;;;;12.70;72.54;96347.44;6210923;28;20441;-72
2023/09/02 03:29:37;;;;;;;3.17;1.95;;;;;;;12.84;72.02;96352.41;6211903;28;20075;-72
2023/09/02 03:32:41;;;;;;;;;;;;;;;13.11;71.09;96348.47;6202566;28;20425;-72
2023/09/02 03:35:48;;;;;;;4.22;2.85;;;;;;;13.04;71.10;96354.25;6188315;28;19925;-72
2023/09/02 03:38:49;;;;;;;4.78;3.13;;;;;;;13.01;71.15;96354.50;6187869;28;20536;-73
2023/09/02 03:41:50;;;;;;;3.88;2.78;;;;;;;13.01;71.16;96359.78;6188136;28;20061;-72
2023/09/02 03:44:52;;;;;;;6.68;3.00;;;;;;;13.08;70.79;96364.53;6188488;28;20043;-73
2023/09/02 03:47:53;;;;;;;8.05;3.50;;;;;;;13.13;70.12;96362.38;6188608;28;20030;-73
2023/09/02 03:51:05;;;;;;;8.13;2.85;;;;;;;13.17;69.88;96369.09;6183619;28;20153;-72
2023/09/02 03:54:15;;;;;;;3.55;2.22;;;;;;;13.28;69.95;96369.06;6178038;28;20047;-73
2023/09/02 03:57:19;;;;;;;3.75;2.50;;;;;;;13.34;69.31;96368.53;6184491;28;20038;-73
2023/09/02 04:00:24;;;;;;;4.70;2.83;;;;;;;13.30;69.41;96377.69;6185102;28;20046;-72
2023/09/02 04:03:31;;;;;;;2.40;2.15;;;;;;;13.27;69.19;96379.75;6188340;28;20453;-72
2023/09/02 04:06:35;;;;;;;3.92;3.10;;;;;;;13.30;69.42;96375.03;6185850;28;20216;-72
2023/09/02 04:09:39;;;;;;;2.58;2.17;;;;;;;13.35;69.62;96375.50;6189367;28;20039;-72
2023/09/02 04:12:43;;;;;;;7.10;2.72;;;;;;;13.43;69.18;96375.69;6190226;28;20043;-72
2023/09/02 04:15:46;;;;;;;5.25;2.97;;;;;;;13.57;68.47;96385.09;6187825;28;20046;-72
2023/09/02 04:18:47;;;;;;;2.90;2.15;;;;;;;13.63;68.00;96381.09;6189684;28;20158;-72
2023/09/02 04:21:52;;;;;;;4.38;2.15;;;;;;;14.08;67.34;96386.06;6173551;28;20092;-72
2023/09/02 04:24:56;;;;;;;2.85;2.30;;;;;;;14.33;65.76;96390.88;6179589;28;20074;-73
2023/09/02 04:28:00;;;;;;;3.25;1.85;;;;;;;14.32;65.05;96383.94;6180381;28;20105;-73
2023/09/02 04:31:02;;;;;;;;;;;;;;;14.26;64.95;96388.91;6183951;28;20564;-72
2023/09/02 04:34:06;;;;;;;2.20;1.77;;;;;;;14.41;65.47;96389.34;6210724;28;19925;-73
2023/09/02 04:37:07;;;;;;;2.90;1.63;;;;;;;14.98;64.05;96380.72;6214347;28;20048;-73
2023/09/02 04:40:10;;;;;;;1.98;1.45;;;;;;;15.29;62.47;96377.09;6196236;28;20053;-73
2023/09/02 04:43:13;;;;;;;2.03;1.30;;;;;;;15.21;62.02;96381.28;6209616;28;20042;-72
2023/09/02 04:46:18;;;;;;;1.40;1.30;;;;;;;15.03;62.75;96373.19;6211425;28;20069;-72
2023/09/02 04:49:19;;;;;;;2.80;1.42;;;;;;;15.18;62.82;96381.56;6209478;28;20537;-73
2023/09/02 04:52:23;;;;;;;2.53;1.70;;;;;;;15.12;62.50;96382.13;6214104;28;20038;-73
2023/09/02 04:55:26;;;;;;;4.78;1.77;;;;;;;14.77;63.30;96386.13;6212952;28;20176;-72
2023/09/02 04:58:30;;;;;;;2.45;1.75;;;;;;;14.53;64.11;96375.94;6211539;28;20049;-71
2023/09/02 05:01:34;;;;;;;4.05;2.80;;;;;;;14.68;64.32;96381.66;6214607;28;20046;-71
2023/09/02 05:04:37;;;;;;;4.20;2.00;;;;;;;14.98;63.65;96387.84;6213592;28;20057;-71
2023/09/02 05:07:41;;;;;;;2.97;2.03;;;;;;;15.31;62.76;96385.72;6215294;28;20508;-71
2023/09/02 05:10:48;;;;;;;5.63;2.20;;;;;;;15.70;61.10;96382.06;6215121;28;20041;-68
2023/09/02 05:13:49;;;;;;;3.60;1.67;;;;;;;15.85;60.64;96400.19;6214284;28;20053;-69
2023/09/02 05:16:58;;;;;;;2.80;1.42;;;;;;;15.86;60.36;96380.66;6211731;28;20042;-68
2023/09/02 05:20:03;;;;;;;2.65;1.42;;;;;;;16.24;58.87;96397.41;6209678;28;20054;-69
2023/09/02 05:23:08;;;;;;;1.25;1.15;;;;;;;16.29;58.48;96406.59;6215015;28;20049;-69
2023/09/02 05:26:11;;;;;;;1.52;1.17;;;;;;;16.38;58.09;96404.88;6211215;28;20096;-70
2023/09/02 05:29:17;;;;;;;2.78;1.48;;;;;;;16.48;57.49;96412.81;6210132;28;20068;-69
2023/09/02 05:32:21;;;;;;;1.63;1.23;;;;;;;16.51;57.32;96407.22;6211694;28;20517;-69
2023/09/02 05:35:25;;;;;;;1.20;1.10;;;;;;;16.32;57.54;96397.53;6210214;28;20125;-70
2023/09/02 05:38:28;;;;;;;0.95;0.80;;;;;;;16.30;57.33;96413.56;6208804;28;20049;-69
2023/09/02 05:41:31;;;;;;;;;;;;;;;16.25;57.20;96413.19;6213873;28;20046;-69
2023/09/02 05:44:36;;;;;;;2.25;0.73;;;;;;;15.82;58.10;96417.22;6211225;28;19933;-69
2023/09/02 05:47:42;;;;;;;1.00;0.85;;;;;;;15.74;58.67;96424.22;6206299;28;20982;-69
2023/09/02 05:50:43;;;;;;;1.70;0.80;;;;;;;15.44;59.34;96397.72;6211983;28;20042;-69
2023/09/02 05:53:47;;;;;;;0.82;0.68;;;;;;;15.38;60.31;96431.94;6194788;28;20533;-69
2023/09/02 05:56:53;;;;;;;1.88;1.00;;;;;;;15.05;61.65;96428.69;6212329;28;20409;-69
2023/09/02 05:59:57;;;;;;;3.17;1.00;;;;;;;14.98;62.63;96435.53;6210849;28;20042;-68
2023/09/02 06:02:58;;;;;;;5.43;2.70;;;;;;;15.02;63.02;96434.25;6212664;28;20080;-69
2023/09/02 06:06:09;;;;;;;1.63;1.20;;;;;;;15.13;62.67;96435.97;6212035;28;20117;-69
2023/09/02 06:09:13;;;;;;;2.25;1.20;;;;;;;15.17;62.70;96442.63;6210223;28;20494;-69
2023/09/02 06:12:19;;;;;;;1.35;1.00;;;;;;;15.20;62.55;96440.56;6216237;28;20103;-70
2023/09/02 06:15:23;;;;;;;1.10;0.70;;;;;;;15.34;62.39;96438.47;6215166;28;20046;-69
2023/09/02 06:18:24;;;;;;;1.13;0.65;;;;;;;16.07;61.57;96436.16;6214592;28;20042;-74
2023/09/02 06:21:32;;;;;;;0.70;0.60;;;;;;;16.98;58.69;96437.16;6212328;28;20421;-70
2023/09/02 06:24:38;;;;;;;0.90;0.60;;;;;;;17.93;56.03;96432.22;6214096;28;20208;-68
2023/09/02 06:27:42;;;;;;;2.28;0.57;;;;;;;18.99;53.03;96426.56;6214536;28;20046;-69
2023/09/02 06:30:47;;;;;;;0.98;0.75;;;;;;;19.50;50.65;96441.53;6216353;28;20072;-67
2023/09/02 06:33:49;;;;;;;1.42;0.90;;;;;;;19.50;50.58;96440.66;6209537;28;20055;-70
2023/09/02 06:36:51;;;;;;;0.82;0.68;;;;;;;19.05;51.59;96436.59;6211222;28;20428;-67
2023/09/02 06:39:55;;;;;;;1.75;1.00;;;;;;;19.95;50.02;96442.03;6207284;28;20042;-69
2023/09/02 06:42:59;;;;;;;2.35;0.90;;;;;;;20.23;48.94;96433.66;6213661;28;20046;-70
2023/09/02 06:46:23;;;;;;;3.72;1.90;;;;;;;19.66;50.15;96442.53;6210420;28;20454;-69
2023/09/02 06:49:26;;;;;;;1.17;1.08;;;;;;;18.70;51.58;96434.94;6210877;28;20041;-69
2023/09/02 06:52:31;;;;;;;2.10;0.80;;;;;;;18.03;53.63;96437.41;6212717;28;20054;-69
2023/09/02 06:55:36;;;;;;;1.23;1.02;;;;;;;17.92;53.88;96436.72;6211478;28;20387;-69
2023/09/02 06:58:42;;;;;;;1.30;0.77;;;;;;;18.10;54.01;96441.16;6195151;28;20053;-69
2023/09/02 07:01:47;;;;;;;1.33;0.80;;;;;;;20.50;49.69;96438.59;6211606;28;20598;-69
2023/09/02 07:04:51;;;;;;;4.10;1.05;;;;;;;20.58;49.12;96432.38;6210771;28;20132;-68
2023/09/02 07:07:55;;;;;;;1.58;0.90;;;;;;;19.91;50.60;96454.06;6209603;28;20042;-68
2023/09/02 07:10:59;;;;;;;1.63;1.20;;;;;;;18.91;52.25;96437.22;6210074;28;20135;-69
2023/09/02 07:14:04;;;;;;;2.50;1.17;;;;;;;20.07;50.46;96455.88;6216798;28;20521;-69
2023/09/02 07:17:05;;;;;;;2.65;1.35;;;;;;;21.88;45.87;96444.19;6209633;28;20057;-69
2023/09/02 07:20:09;;;;;;;2.13;1.08;;;;;;;22.42;43.87;96448.56;6186845;28;20050;-69
2023/09/02 07:23:10;;;;;;;4.30;1.63;;;;;;;21.58;45.28;96445.09;6206707;28;20061;-69
2023/09/02 07:26:14;;;;;;;3.25;2.33;;;;;;;21.12;45.38;96445.00;6208093;28;20508;-69
2023/09/02 07:29:15;;;;;;;3.08;2.08;;;;;;;20.08;46.56;96447.69;6216472;28;20632;-69
2023/09/02 07:32:17;;;;;;;3.30;1.05;;;;;;;19.12;48.62;96450.13;6211890;28;20077;-67
2023/09/02 07:35:20;;;;;;;1.10;1.00;;;;;;;18.34;50.75;96451.94;6212506;28;20055;-70
2023/09/02 07:38:24;;;;;;;;;;;;;;;18.23;51.46;96460.22;6208950;28;20046;-68
2023/09/02 07:41:28;;;;;;;3.85;1.50;;;;;;;18.18;51.66;96452.69;6206745;28;20325;-69
2023/09/02 07:44:29;;;;;;;1.45;1.30;;;;;;;18.82;50.45;96466.53;6209257;28;20046;-69
2023/09/02 07:47:32;;;;;;;;;;;;;;;19.60;49.13;96464.53;6207900;28;20057;-68
2023/09/02 07:50:36;;;;;;;2.93;1.47;;;;;;;18.94;51.52;96458.22;6214073;28;19921;-68
2023/09/02 07:53:37;;;;;;;2.45;1.70;;;;;;;18.66;52.36;96461.09;6208750;28;20191;-69
2023/09/02 07:56:43;;;;;;;3.35;1.35;;;;;;;19.17;50.42;96466.47;6211404;28;20042;-69
2023/09/02 07:59:45;;;;;;;;;;;;;;;22.73;44.41;96469.84;6211605;28;20053;-67
2023/09/02 08:02:46;;;;;;;2.97;1.90;;;;;;;25.19;38.52;96476.66;6209713;28;20405;-69
2023/09/02 08:05:51;;;;;;;2.17;1.25;;;;;;;24.77;39.07;96476.66;6212153;28;20829;-68
2023/09/02 08:08:54;;;;;;;1.75;0.90;;;;;;;23.48;39.94;96479.44;6213904;28;20046;-67
2023/09/02 08:12:00;;;;;;;2.28;1.17;;;;;;;22.13;42.50;96481.47;6214926;28;20041;-67
2023/09/02 08:15:04;;;;;;;2.90;1.42;;;;;;;21.04;43.44;96484.19;6216066;28;20042;-69
2023/09/02 08:18:06;;;;;;;3.70;1.67;;;;;;;20.08;44.96;96490.44;6206468;28;20554;-69
2023/09/02 08:21:10;;;;;;;2.22;1.00;;;;;;;19.53;46.34;96493.69;6221027;28;20041;-68
2023/09/02 08:24:14;;;;;;;0.95;0.88;;;;;;;19.26;47.12;96501.00;6214724;28;20103;-68
2023/09/02 08:27:17;;;;;;;3.08;2.00;;;;;;;19.97;46.01;96496.09;6214553;28;20042;-69
2023/09/02 08:30:20;;;;;;;2.53;2.03;;;;;;;20.77;44.23;96495.31;6210496;28;20042;-69
2023/09/02 08:33:21;;;;;;;1.02;0.93;;;;;;;21.30;43.35;96499.94;6209710;28;20120;-69
2023/09/02 08:36:25;;;;;;;2.03;1.10;;;;;;;21.76;42.61;96499.19;6215337;28;20057;-67
2023/09/02 08:39:32;;;;;;;1.77;1.23;;;;;;;22.40;41.58;96498.84;6217005;28;20050;-68
2023/09/02 08:42:36;;;;;;;5.90;0.93;;;;;;;24.87;37.29;96504.03;6218895;28;20072;-67
2023/09/02 08:45:43;;;;;;;2.72;0.65;;;;;;;25.83;34.40;96508.59;6211415;28;20050;-69
2023/09/02 08:48:53;;;;;;;1.52;0.63;;;;;;;28.35;31.21;96517.09;6213068;28;20042;-71
2023/09/02 08:51:55;;;;;;;0.73;0.40;;;;;;;29.30;29.39;96520.38;6208933;28;20520;-73
2023/09/02 08:55:00;;;;;;;2.17;1.15;;;;;;;28.40;29.78;96515.38;6213391;28;20548;-76
2023/09/02 08:58:08;;;;;;;2.45;1.10;;;;;;;27.84;29.89;96505.38;6216942;28;20041;-76
2023/09/02 09:01:19;;;;;;;3.00;0.82;;;;;;;27.87;30.05;96518.47;6211368;28;20046;-75
2023/09/02 09:04:28;;;;;;;0.95;0.40;;;;;;;30.27;26.35;96516.81;6216130;28;20050;-73
2023/09/02 09:07:35;;;;;;;0.80;0.50;;;;;;;32.77;23.91;96523.06;6220345;28;20045;-74
2023/09/02 09:10:44;;;;;;;6.60;1.80;;;;;;;34.57;21.98;96525.03;6197155;28;20054;-73
2023/09/02 09:13:49;;;;;;;1.65;0.77;;;;;;;36.18;21.26;96513.56;6211329;28;20045;-74
2023/09/02 09:16:58;;;;;;;2.15;0.50;;;;;;;35.89;21.06;96510.44;6212458;28;20061;-72
2023/09/02 09:20:03;;;;;;;5.07;0.70;;;;;;;36.34;20.80;96505.34;6219706;28;20050;-73
2023/09/02 09:23:11;;;;;;;1.20;0.65;;;;;;;36.24;20.14;96505.38;6215811;28;20060;-74
2023/09/02 09:26:14;;;;;;;2.38;0.60;;;;;;;34.99;21.35;96498.78;6217255;28;20045;-76
2023/09/02 09:29:22;;;;;;;2.30;0.50;;;;;;;32.87;22.92;96483.19;6212564;28;20093;-75
2023/09/02 09:32:28;;;;;;;0.93;0.40;;;;;;;31.35;25.06;96481.28;6213957;28;20077;-75
2023/09/02 09:35:37;;;;;;;1.80;0.63;;;;;;;31.88;24.02;96480.16;6208510;28;20045;-75
2023/09/02 09:38:43;;;;;;;1.70;0.60;;;;;;;33.53;22.65;96480.53;6217386;28;20056;-77
2023/09/02 09:41:48;;;;;;;1.40;0.68;;;;;;;35.38;20.62;96482.06;6209529;28;20461;-76
2023/09/02 09:45:00;;;;;;;1.27;0.52;;;;;;;36.13;19.94;96488.09;6213314;28;20564;-78
2023/09/02 09:48:10;;;;;;;1.40;0.80;;;;;;;36.55;19.56;96496.09;6214613;28;20046;-78
2023/09/02 09:51:24;;;;;;;1.33;0.70;;;;;;;34.68;20.88;96484.94;6197815;28;21250;-74
2023/09/02 09:54:41;;;;;;;3.17;0.50;;;;;;;32.56;22.56;96487.34;6216133;28;20050;-75
2023/09/02 09:57:45;;;;;;;1.00;0.47;;;;;;;32.20;23.34;96472.31;6208776;28;20188;-75
2023/09/02 10:00:52;;;;;;;2.45;0.80;;;;;;;29.99;25.55;96463.16;6209541;28;20058;-75
2023/09/02 10:03:56;;;;;;;3.33;0.80;;;;;;;27.61;28.51;96470.75;6208573;28;20057;-75
2023/09/02 10:07:04;;;;;;;1.13;0.70;;;;;;;26.14;30.24;96455.97;6216586;28;20540;-75
2023/09/02 10:10:06;;;;;;;4.60;0.90;;;;;;;27.38;28.80;96456.97;6215097;28;20125;-75
2023/09/02 10:13:11;;;;;;;2.05;0.80;;;;;;;29.47;26.28;96460.13;6211707;28;20112;-75
2023/09/02 10:16:16;;;;;;;1.70;0.63;;;;;;;30.36;24.74;96446.75;6215109;28;20464;-76
2023/09/02 10:19:23;;;;;;;1.02;0.73;;;;;;;30.48;24.47;96438.59;6210057;28;20042;-76
2023/09/02 10:22:31;;;;;;;2.28;0.80;;;;;;;31.13;23.42;96452.00;6215491;28;20054;-76
2023/09/02 10:25:45;;;;;;;1.00;0.90;;;;;;;31.41;22.90;96453.97;6209472;28;20046;-74
2023/09/02 10:28:54;;;;;;;1.55;0.60;;;;;;;31.00;24.42;96463.16;6212209;28;20038;-76
2023/09/02 10:32:03;;;;;;;2.55;1.00;;;;;;;27.70;31.11;96457.81;6212102;28;20050;-74
2023/09/02 10:35:09;;;;;;;1.27;0.90;;;;;;;24.20;36.23;96459.72;6207667;28;20042;-75
2023/09/02 10:38:17;;;;;;;2.33;1.00;;;;;;;22.61;40.02;96455.22;6213375;28;20038;-74
2023/09/02 10:41:25;;;;;;;2.15;1.00;;;;;;;21.81;40.93;96451.28;6211183;28;20057;-75
2023/09/02 10:44:30;;;;;;;3.33;1.05;;;;;;;21.61;41.04;96455.47;6188244;28;20042;-75
2023/09/02 10:47:37;;;;;;;2.03;1.17;;;;;;;21.33;40.56;96441.72;6212971;28;20080;-75
2023/09/02 10:50:47;;;;;;;3.25;1.10;;;;;;;20.85;43.09;96455.19;6214650;28;20046;-75
2023/09/02 10:53:48;;;;;;;2.25;1.23;;;;;;;21.10;44.00;96458.59;6216446;28;20493;-75
2023/09/02 10:57:10;;;;;;;2.50;1.48;;;;;;;21.48;44.02;96454.19;6214842;28;20042;-75
2023/09/02 11:00:25;;;;;;;4.88;1.80;;;;;;;23.07;40.99;96463.06;6216236;28;20901;-74
2023/09/02 11:03:46;;;;;;;6.00;2.90;;;;;;;25.94;35.81;96462.19;6212324;28;20517;-74
2023/09/02 11:07:22;;;;;;;5.50;2.70;;;;;;;27.59;32.84;96472.84;6207773;28;20065;-73
2023/09/02 11:10:55;;;;;;;6.05;2.97;;;;;;;25.97;34.80;96482.50;6209655;28;20481;-73
2023/09/02 11:14:08;;;;;;;4.80;3.70;;;;;;;23.92;38.10;96483.00;6214803;28;20058;-77
2023/09/02 11:17:32;;;;;;;3.13;2.38;;;;;;;22.40;41.17;96462.16;6209327;28;20038;-74
2023/09/02 11:20:52;;;;;;;3.78;1.67;;;;;;;23.35;39.77;96476.59;6207975;28;20038;-74
2023/09/02 11:24:21;;;;;;;2.15;1.40;;;;;;;22.65;40.35;96451.16;6210906;28;20041;-73
2023/09/02 11:27:46;;;;;;;4.13;1.45;;;;;;;21.32;42.45;96456.97;6208466;28;20053;-75
2023/09/02 11:31:09;;;;;;;1.35;1.00;;;;;;;21.34;41.91;96454.91;6212756;28;20049;-74
2023/09/02 11:34:19;;;;;;;1.73;1.48;;;;;;;22.54;39.45;96457.81;6209789;28;20042;-74
2023/09/02 11:37:32;;;;;;;2.40;1.30;;;;;;;23.50;37.82;96461.31;6208980;28;20038;-74
2023/09/02 11:40:39;;;;;;;1.52;1.40;;;;;;;24.11;36.63;96454.66;6208037;28;20041;-76
2023/09/02 11:43:43;;;;;;;1.20;1.10;;;;;;;25.14;35.54;96457.56;6210333;28;20046;-73
2023/09/02 11:46:47;;;;;;;2.30;1.38;;;;;;;24.59;35.59;96450.25;6206387;28;20042;-75
2023/09/02 11:49:52;;;;;;;2.63;1.35;;;;;;;23.66;37.52;96462.88;6205289;28;20037;-75
2023/09/02 11:52:58;;;;;;;1.35;1.10;;;;;;;22.60;40.06;96456.25;6211254;28;20038;-75
2023/09/02 11:56:10;;;;;;;1.35;1.25;;;;;;;20.78;46.88;96464.94;6214083;28;20038;-75
2023/09/02 11:59:22;;;;;;;1.58;1.10;;;;;;;19.73;47.56;96476.44;6211307;28;20153;-74
2023/09/02 12:02:26;;;;;;;2.42;1.20;;;;;;;20.06;46.09;96481.75;6211632;28;20433;-75
2023/09/02 12:05:45;;;;;;;1.92;1.23;;;;;;;21.25;42.07;96477.41;6212310;28;20413;-75
2023/09/02 12:08:50;;;;;;;2.83;1.48;;;;;;;22.29;39.70;96486.72;6205030;28;20049;-75
2023/09/02 12:11:57;;;;;;;1.13;1.00;;;;;;;22.74;38.00;96479.53;6212713;28;20120;-75
2023/09/02 12:15:03;;;;;;;2.20;1.33;;;;;;;22.12;39.48;96479.81;6208775;28;20042;-74
2023/09/02 12:18:14;;;;;;;3.35;1.10;;;;;;;21.69;40.50;96490.22;6207960;28;20448;-75
2023/09/02 12:21:21;;;;;;;1.50;1.20;;;;;;;21.49;40.73;96488.00;6209356;28;20136;-75
2023/09/02 12:24:26;;;;;;;1.60;1.13;;;;;;;21.32;40.92;96499.78;6211382;28;20054;-75
2023/09/02 12:27:32;;;;;;;2.42;1.10;;;;;;;21.65;40.05;96499.59;6210829;28;20033;-75
2023/09/02 12:30:39;;;;;;;2.20;1.40;;;;;;;22.18;39.21;96517.47;6210928;28;20065;-75
2023/09/02 12:33:40;;;;;;;3.72;1.13;;;;;;;21.87;40.49;96536.25;6209384;28;20061;-75
2023/09/02 12:36:42;;;;;;;0.98;0.80;;;;;;;20.83;42.69;96553.47;6210027;28;20038;-75
2023/09/02 12:39:51;;;;;;;1.98;1.08;;;;;;;19.77;45.11;96565.00;6211081;28;20038;-75
2023/09/02 12:42:59;;;;;;;1.67;1.13;;;;;;;18.64;48.00;96553.69;6211952;28;20034;-74
2023/09/02 12:46:03;;;;;;;2.45;1.58;;;;;;;17.53;52.92;96573.69;6209333;28;20102;-75
2023/09/02 12:49:08;;;;;;;4.38;1.88;;;;;;;16.40;56.86;96564.91;6210436;28;20053;-75
2023/09/02 12:52:26;;;;;;;1.42;1.25;;;;;;;15.80;58.87;96561.63;6214171;28;20053;-74
2023/09/02 12:55:39;;;;;;;4.82;3.13;;;;;;;15.26;60.22;96563.75;6207261;28;20652;-74
2023/09/02 12:58:45;;;;;;;5.82;3.65;;;;;;;14.91;60.84;96564.19;6210135;28;20050;-74
2023/09/02 13:01:50;;;;;;;2.53;1.73;;;;;;;14.93;61.76;96594.06;6211382;28;20417;-74
2023/09/02 13:04:57;;;;;;;2.80;1.95;;;;;;;15.10;61.06;96593.41;6204509;28;20041;-74
2023/09/02 13:08:02;;;;;;;4.35;2.38;;;;;;;15.35;60.41;96600.03;6214321;28;20504;-74
2023/09/02 13:11:03;;;;;;;4.20;2.72;;;;;;;15.09;61.01;96590.88;6217959;28;20042;-73
2023/09/02 13:14:07;;;;;;;3.95;2.35;;;;;;;14.94;62.24;96601.00;6215643;28;20041;-74
2023/09/02 13:17:11;;;;;;;2.10;1.90;;;;;;;14.64;62.87;96596.56;6213216;28;20037;-74
2023/09/02 13:20:16;;;;;;;4.27;2.97;;;;;;;14.15;63.88;96567.09;6212978;28;20045;-73
2023/09/02 13:23:23;;;;;;;2.70;1.92;;;;;;;14.03;64.97;96589.31;6214945;28;20050;-74
2023/09/02 13:26:32;;;;;;;3.00;2.22;;;;;;;13.78;66.27;96588.69;6213103;28;20103;-73
2023/09/02 13:29:36;;;;;;;3.28;2.25;;;;;;;13.64;67.34;96596.91;6214235;28;20039;-73
2023/09/02 13:32:38;;;;;;;2.35;2.00;;;;;;;13.56;67.40;96589.63;6216211;28;20516;-74
2023/09/02 13:35:42;;;;;;;2.70;2.50;;;;;;;13.36;67.81;96585.09;6213313;28;20045;-74
2023/09/02 13:38:45;;;;;;;2.88;2.55;;;;;;;13.36;68.19;96590.38;6212780;28;20042;-74
2023/09/02 13:41:51;;;;;;;2.80;2.45;;;;;;;13.36;68.34;96591.25;6218117;28;20057;-74
2023/09/02 13:45:13;;;;;;;3.13;2.83;;;;;;;13.40;68.45;96597.94;6213884;28;20042;-75
2023/09/02 13:48:22;;;;;;;3.30;2.58;;;;;;;13.59;68.00;96596.47;6206077;28;20133;-74
2023/09/02 13:51:31;;;;;;;3.40;3.10;;;;;;;13.76;67.11;96593.28;6212948;28;20041;-74
2023/09/02 13:54:36;;;;;;;4.40;3.50;;;;;;;14.01;66.36;96609.75;6218166;28;20077;-74
2023/09/02 13:57:43;;;;;;;3.30;3.00;;;;;;;14.13;65.86;96606.09;6180911;28;20037;-74
2023/09/02 14:00:45;;;;;;;4.63;3.20;;;;;;;14.23;65.63;96609.63;6210661;28;20524;-75
2023/09/02 14:03:48;;;;;;;4.72;3.42;;;;;;;14.28;65.42;96603.97;6213095;28;20831;-73
2023/09/02 14:06:53;;;;;;;4.43;3.60;;;;;;;14.23;65.26;96591.13;6211929;28;20057;-74
2023/09/02 14:09:55;;;;;;;5.28;4.03;;;;;;;14.34;65.47;96625.47;6212163;28;20091;-74
2023/09/02 14:13:08;;;;;;;6.13;3.90;;;;;;;14.28;66.06;96615.41;6209700;28;20054;-74
2023/09/02 14:16:12;;;;;;;5.60;3.80;;;;;;;14.14;66.60;96611.25;6195164;28;20532;-74
2023/09/02 14:19:18;;;;;;;4.88;3.67;;;;;;;14.11;66.78;96624.75;6213683;28;20048;-74
2023/09/02 14:22:21;;;;;;;5.00;4.00;;;;;;;14.04;67.40;96622.72;6212333;28;20072;-74
2023/09/02 14:25:26;;;;;;;5.35;4.10;;;;;;;13.77;68.13;96615.28;6212270;28;20049;-73
2023/09/02 14:28:31;;;;;;;4.30;3.90;;;;;;;13.46;68.62;96592.16;6210741;28;20408;-73
2023/09/02 14:31:42;;;;;;;5.18;4.13;;;;;;;13.74;68.73;96626.94;6212708;28;20064;-74
2023/09/02 14:34:50;;;;;;;5.15;4.63;;;;;;;13.47;69.30;96624.72;6208540;28;20054;-74
2023/09/02 14:37:52;;;;;;;5.32;4.15;;;;;;;13.47;69.76;96622.94;6210800;28;22126;-73